Time;durP1;ratioP1;P1;durP2;ratioP2;P2;SDS_P1;SDS_P2;PMS_P1;PMS_P2;Temp;Humidity;BMP_temperature;BMP_pressure;BME280_temperature;BME280_humidity;BME280_pressure;Samples;Min_cycle;Max_cycle;Signal;HPM_P1;HPM_P2
2022/08/09 00:01:50;;;;;;;9.95;4.60;;;;;;;;;;6206024;23;20012;-86
2022/08/09 00:04:20;;;;;;;6.13;4.43;;;;;;;;;;6206165;23;20008;-85
2022/08/09 00:06:47;;;;;;;8.80;4.65;;;;;;;;;;6206478;23;20008;-85
2022/08/09 00:09:14;;;;;;;11.38;4.95;;;;;;;;;;6206489;23;20016;-86
2022/08/09 00:11:40;;;;;;;15.23;5.45;;;;;;;;;;6206455;23;20009;-85
2022/08/09 00:14:07;;;;;;;9.65;5.38;;;;;;;;;;6206792;23;20086;-84
2022/08/09 00:16:33;;;;;;;13.57;5.38;;;;;;;;;;6206124;23;20087;-85
2022/08/09 00:18:59;;;;;;;8.57;5.25;;;;;;;;;;6207310;22;20031;-85
2022/08/09 00:21:25;;;;;;;11.82;5.32;;;;;;;;;;6206123;23;20055;-85
2022/08/09 00:23:51;;;;;;;12.35;4.90;;;;;;;;;;6205815;23;20012;-85
2022/08/09 00:26:17;;;;;;;12.52;4.88;;;;;;;;;;6205412;23;20005;-85
2022/08/09 00:28:43;;;;;;;9.73;5.00;;;;;;;;;;6208353;23;20068;-85
2022/08/09 00:31:09;;;;;;;9.27;4.63;;;;;;;;;;6205620;23;20054;-85
2022/08/09 00:33:35;;;;;;;9.07;5.00;;;;;;;;;;6206819;23;20732;-85
2022/08/09 00:36:01;;;;;;;8.13;4.32;;;;;;;;;;6206302;23;20015;-85
2022/08/09 00:38:27;;;;;;;8.75;4.57;;;;;;;;;;6205735;23;20012;-86
2022/08/09 00:40:53;;;;;;;7.90;4.28;;;;;;;;;;6203537;23;20042;-86
2022/08/09 00:43:21;;;;;;;7.00;4.63;;;;;;;;;;6208203;23;20008;-84
2022/08/09 00:45:47;;;;;;;10.75;4.80;;;;;;;;;;6206020;23;20012;-85
2022/08/09 00:48:13;;;;;;;9.60;4.60;;;;;;;;;;6203904;23;20004;-86
2022/08/09 00:50:39;;;;;;;7.53;4.10;;;;;;;;;;6203851;23;20036;-86
2022/08/09 00:53:05;;;;;;;9.10;4.97;;;;;;;;;;6198802;23;20008;-85
2022/08/09 00:55:31;;;;;;;10.63;5.00;;;;;;;;;;6201209;23;20040;-85
2022/08/09 00:57:57;;;;;;;11.98;5.40;;;;;;;;;;6200477;23;20009;-86
2022/08/09 01:00:23;;;;;;;10.77;5.10;;;;;;;;;;6202058;23;20012;-85
2022/08/09 01:02:52;;;;;;;8.85;4.70;;;;;;;;;;6201802;23;20306;-85
2022/08/09 01:05:40;;;;;;;10.27;5.22;;;;;;;;;;6200909;23;20333;-86
2022/08/09 01:08:08;;;;;;;9.32;5.13;;;;;;;;;;6204898;23;20118;-86
2022/08/09 01:10:34;;;;;;;12.30;5.15;;;;;;;;;;6200475;23;20011;-85
2022/08/09 01:13:06;;;;;;;10.38;5.45;;;;;;;;;;6204062;23;20005;-85
2022/08/09 01:15:36;;;;;;;9.60;4.80;;;;;;;;;;6205785;23;20005;-85
2022/08/09 01:18:04;;;;;;;21.10;5.63;;;;;;;;;;6215606;22;20016;-85
2022/08/09 01:20:40;;;;;;;9.73;4.82;;;;;;;;;;6210801;23;20197;-85
2022/08/09 01:23:12;;;;;;;12.00;5.63;;;;;;;;;;6211100;23;20019;-84
2022/08/09 01:25:47;;;;;;;7.93;4.82;;;;;;;;;;6212370;23;20008;-86
2022/08/09 01:28:14;;;;;;;9.75;5.53;;;;;;;;;;6210692;23;20006;-85
2022/08/09 01:30:41;;;;;;;11.50;5.88;;;;;;;;;;6213032;23;20004;-86
2022/08/09 01:33:08;;;;;;;7.78;4.68;;;;;;;;;;6210395;23;20008;-86
2022/08/09 01:35:44;;;;;;;13.73;5.40;;;;;;;;;;6212822;23;20008;-85
2022/08/09 01:38:13;;;;;;;10.48;5.15;;;;;;;;;;6241020;23;20025;-85
2022/08/09 01:40:50;;;;;;;11.38;6.35;;;;;;;;;;6211165;23;20019;-86
2022/08/09 01:43:17;;;;;;;16.27;5.90;;;;;;;;;;6210886;23;20015;-85
2022/08/09 01:45:44;;;;;;;12.35;5.43;;;;;;;;;;6210744;23;20008;-85
2022/08/09 01:48:10;;;;;;;10.70;5.18;;;;;;;;;;6237822;23;20050;-85
2022/08/09 01:50:38;;;;;;;12.73;5.25;;;;;;;;;;6210306;23;20343;-85
2022/08/09 01:53:04;;;;;;;12.05;5.28;;;;;;;;;;6211874;23;20058;-85
2022/08/09 01:55:32;;;;;;;9.88;5.72;;;;;;;;;;6211052;23;20045;-85
2022/08/09 01:57:59;;;;;;;15.48;6.25;;;;;;;;;;6211750;23;20004;-85
2022/08/09 02:00:26;;;;;;;9.50;5.70;;;;;;;;;;6210555;23;20005;-85
2022/08/09 02:02:52;;;;;;;8.25;5.32;;;;;;;;;;6211260;23;20313;-85
2022/08/09 02:05:20;;;;;;;11.02;5.10;;;;;;;;;;6238230;23;20004;-85
2022/08/09 02:07:49;;;;;;;9.90;5.68;;;;;;;;;;6211912;23;20011;-85
2022/08/09 02:10:17;;;;;;;11.27;5.00;;;;;;;;;;6209804;23;20008;-86
2022/08/09 02:12:44;;;;;;;10.20;5.40;;;;;;;;;;6210399;23;20007;-86
2022/08/09 02:15:11;;;;;;;9.30;5.38;;;;;;;;;;6212460;23;20475;-85
2022/08/09 02:17:38;;;;;;;12.32;5.45;;;;;;;;;;6205915;22;20546;-85
2022/08/09 02:20:04;;;;;;;8.63;5.30;;;;;;;;;;6206629;23;20015;-86
2022/08/09 02:22:35;;;;;;;11.25;5.47;;;;;;;;;;6207032;23;20046;-85
2022/08/09 02:25:03;;;;;;;9.20;5.20;;;;;;;;;;6207059;23;20064;-86
2022/08/09 02:27:30;;;;;;;13.13;5.75;;;;;;;;;;6203390;23;20015;-86
2022/08/09 02:29:57;;;;;;;8.65;4.97;;;;;;;;;;6205858;23;20005;-85
2022/08/09 02:32:26;;;;;;;8.05;4.70;;;;;;;;;;6206972;23;20075;-86
2022/08/09 02:34:56;;;;;;;13.70;5.30;;;;;;;;;;6205993;23;20423;-86
2022/08/09 02:37:25;;;;;;;14.02;5.03;;;;;;;;;;6204936;23;20015;-85
2022/08/09 02:40:01;;;;;;;8.20;5.40;;;;;;;;;;6201963;23;20013;-85
2022/08/09 02:42:29;;;;;;;9.43;5.53;;;;;;;;;;6205200;23;20463;-85
2022/08/09 02:45:00;;;;;;;8.10;5.20;;;;;;;;;;6205508;23;20070;-85
2022/08/09 02:47:27;;;;;;;12.32;5.20;;;;;;;;;;6204296;23;20012;-85
2022/08/09 02:49:59;;;;;;;12.23;5.40;;;;;;;;;;6206531;23;20822;-85
2022/08/09 02:52:33;;;;;;;8.18;4.68;;;;;;;;;;6205276;23;20001;-86
2022/08/09 02:55:00;;;;;;;10.60;5.47;;;;;;;;;;6205289;23;20036;-86
2022/08/09 02:57:26;;;;;;;15.52;5.03;;;;;;;;;;6206937;23;20051;-85
2022/08/09 02:59:53;;;;;;;10.65;5.20;;;;;;;;;;6206366;23;20012;-86
2022/08/09 03:02:22;;;;;;;11.88;4.93;;;;;;;;;;6206086;23;20425;-86
2022/08/09 03:04:49;;;;;;;9.52;4.95;;;;;;;;;;6204546;23;20009;-87
2022/08/09 03:07:15;;;;;;;7.72;4.80;;;;;;;;;;6207909;23;20436;-85
2022/08/09 03:09:49;;;;;;;11.15;5.43;;;;;;;;;;6206310;23;20810;-86
2022/08/09 03:12:16;;;;;;;12.50;5.15;;;;;;;;;;6206089;23;20329;-85
2022/08/09 03:14:42;;;;;;;8.35;4.95;;;;;;;;;;6206744;23;20016;-84
2022/08/09 03:17:10;;;;;;;11.00;5.32;;;;;;;;;;6205025;23;20004;-86
2022/08/09 03:19:36;;;;;;;19.48;6.25;;;;;;;;;;6205561;23;20024;-85
2022/08/09 03:22:02;;;;;;;8.32;5.32;;;;;;;;;;6204628;23;20965;-85
2022/08/09 03:24:28;;;;;;;11.05;5.40;;;;;;;;;;6203544;23;20381;-85
2022/08/09 03:26:54;;;;;;;9.00;4.93;;;;;;;;;;6205698;23;20012;-85
2022/08/09 03:29:28;;;;;;;10.52;5.45;;;;;;;;;;6208083;23;20024;-85
2022/08/09 03:31:54;;;;;;;8.98;4.78;;;;;;;;;;6206555;23;20058;-84
2022/08/09 03:34:20;;;;;;;10.38;4.82;;;;;;;;;;6207781;23;20005;-85
2022/08/09 03:36:47;;;;;;;10.40;5.22;;;;;;;;;;6206123;23;20012;-85
2022/08/09 03:39:13;;;;;;;10.02;5.57;;;;;;;;;;6205325;23;20014;-85
2022/08/09 03:41:39;;;;;;;11.63;5.28;;;;;;;;;;6206768;23;20005;-85
2022/08/09 03:44:05;;;;;;;15.85;6.07;;;;;;;;;;6206482;23;20039;-85
2022/08/09 03:46:31;;;;;;;15.50;5.88;;;;;;;;;;6205486;23;20059;-85
2022/08/09 03:48:58;;;;;;;12.40;5.07;;;;;;;;;;6206169;23;20062;-85
2022/08/09 03:51:25;;;;;;;10.45;5.25;;;;;;;;;;6205883;23;20004;-85
2022/08/09 03:53:52;;;;;;;23.33;5.32;;;;;;;;;;6206925;23;20012;-85
2022/08/09 03:56:18;;;;;;;16.33;5.25;;;;;;;;;;6205372;23;20082;-85
2022/08/09 03:58:44;;;;;;;10.68;5.65;;;;;;;;;;6204883;23;20386;-85
2022/08/09 04:01:11;;;;;;;11.93;4.90;;;;;;;;;;6205672;23;20008;-86
2022/08/09 04:03:38;;;;;;;13.93;5.90;;;;;;;;;;6206528;23;20055;-85
2022/08/09 04:06:04;;;;;;;9.80;4.55;;;;;;;;;;6206164;23;20001;-85
2022/08/09 04:08:30;;;;;;;9.80;5.30;;;;;;;;;;6206869;23;20004;-84
2022/08/09 04:10:56;;;;;;;12.07;5.20;;;;;;;;;;6205585;23;20425;-85
2022/08/09 04:13:22;;;;;;;12.07;5.13;;;;;;;;;;6205710;23;20015;-85
2022/08/09 04:15:48;;;;;;;8.88;4.93;;;;;;;;;;6206917;23;20015;-85
2022/08/09 04:18:21;;;;;;;8.57;4.97;;;;;;;;;;6209806;22;20086;-85
2022/08/09 04:20:54;;;;;;;12.98;5.15;;;;;;;;;;6211415;23;20008;-84
2022/08/09 04:23:20;;;;;;;8.00;4.57;;;;;;;;;;6209799;23;20352;-85
2022/08/09 04:25:46;;;;;;;11.15;5.13;;;;;;;;;;6237018;23;20000;-85
2022/08/09 04:28:12;;;;;;;10.80;5.32;;;;;;;;;;6208265;23;20118;-84
2022/08/09 04:30:39;;;;;;;9.88;5.30;;;;;;;;;;6211094;23;20008;-86
2022/08/09 04:33:05;;;;;;;11.45;4.88;;;;;;;;;;6209801;23;20030;-85
2022/08/09 04:35:31;;;;;;;7.22;4.53;;;;;;;;;;6211726;23;20094;-85
2022/08/09 04:37:57;;;;;;;11.35;5.35;;;;;;;;;;6210717;23;20012;-85
2022/08/09 04:40:46;;;;;;;13.98;5.22;;;;;;;;;;6209914;23;20019;-85
2022/08/09 04:43:09;;;;;;;12.18;5.18;;;;;;;;;;6236745;23;20344;-85
2022/08/09 04:45:36;;;;;;;8.90;5.15;;;;;;;;;;6211485;23;20035;-85
2022/08/09 04:48:03;;;;;;;8.65;4.60;;;;;;;;;;6209161;23;20066;-86
2022/08/09 04:50:29;;;;;;;12.70;5.63;;;;;;;;;;6209870;23;20034;-84
2022/08/09 04:52:55;;;;;;;11.18;5.72;;;;;;;;;;6209752;23;20008;-86
2022/08/09 04:55:21;;;;;;;12.07;5.25;;;;;;;;;;6237343;23;20050;-85
2022/08/09 04:57:47;;;;;;;11.15;5.55;;;;;;;;;;6236124;23;20388;-85
2022/08/09 05:00:13;;;;;;;9.60;4.40;;;;;;;;;;6211335;23;20008;-85
2022/08/09 05:02:40;;;;;;;7.63;4.35;;;;;;;;;;6208619;23;20008;-86
2022/08/09 05:05:07;;;;;;;11.07;4.63;;;;;;;;;;6208518;23;20011;-84
2022/08/09 05:07:33;;;;;;;6.63;4.28;;;;;;;;;;6236983;23;20336;-86
2022/08/09 05:09:59;;;;;;;6.82;4.25;;;;;;;;;;6210363;23;20386;-85
2022/08/09 05:12:25;;;;;;;6.70;4.07;;;;;;;;;;6211058;23;20004;-85
2022/08/09 05:14:51;;;;;;;8.30;4.25;;;;;;;;;;6211425;23;20095;-85
2022/08/09 05:17:17;;;;;;;5.07;3.70;;;;;;;;;;6210764;23;20459;-85
2022/08/09 05:19:43;;;;;;;8.38;4.72;;;;;;;;;;6206419;22;20127;-85
2022/08/09 05:22:11;;;;;;;5.57;3.83;;;;;;;;;;6206935;23;20016;-84
2022/08/09 05:24:37;;;;;;;5.88;3.78;;;;;;;;;;6205438;23;20529;-86
2022/08/09 05:27:03;;;;;;;6.50;4.15;;;;;;;;;;6204191;23;20004;-85
2022/08/09 05:29:29;;;;;;;12.20;4.75;;;;;;;;;;6206227;23;20001;-85
2022/08/09 05:31:59;;;;;;;6.32;3.75;;;;;;;;;;6205360;23;20092;-85
2022/08/09 05:34:25;;;;;;;8.88;3.80;;;;;;;;;;6206433;23;20004;-85
2022/08/09 05:36:51;;;;;;;5.70;3.75;;;;;;;;;;6204967;23;20139;-86
2022/08/09 05:39:17;;;;;;;7.57;3.95;;;;;;;;;;6206162;23;20051;-85
2022/08/09 05:41:44;;;;;;;12.90;4.95;;;;;;;;;;6202772;23;20009;-86
2022/08/09 05:44:10;;;;;;;9.05;3.35;;;;;;;;;;6205774;23;20019;-85
2022/08/09 05:46:36;;;;;;;5.97;3.60;;;;;;;;;;6203801;23;20005;-85
2022/08/09 05:49:02;;;;;;;6.80;3.40;;;;;;;;;;6205716;23;20012;-85
2022/08/09 05:51:28;;;;;;;4.30;3.13;;;;;;;;;;6205697;23;20474;-85
2022/08/09 05:53:54;;;;;;;5.95;3.33;;;;;;;;;;6207789;23;20424;-85
2022/08/09 05:56:20;;;;;;;8.80;3.25;;;;;;;;;;6203641;23;20436;-85
2022/08/09 05:58:47;;;;;;;8.73;3.45;;;;;;;;;;6205618;23;20407;-86
2022/08/09 06:01:13;;;;;;;7.78;3.22;;;;;;;;;;6204842;23;20013;-85
2022/08/09 06:03:39;;;;;;;11.38;3.25;;;;;;;;;;6206200;23;20012;-84
2022/08/09 06:06:05;;;;;;;8.57;2.83;;;;;;;;;;6206586;23;20005;-85
2022/08/09 06:08:31;;;;;;;6.90;2.55;;;;;;;;;;6207179;23;20008;-85
2022/08/09 06:10:57;;;;;;;7.47;2.90;;;;;;;;;;6207191;23;20009;-84
2022/08/09 06:13:23;;;;;;;7.97;3.10;;;;;;;;;;6206720;23;20009;-85
2022/08/09 06:15:49;;;;;;;10.68;2.92;;;;;;;;;;6208532;23;20008;-85
2022/08/09 06:18:15;;;;;;;7.32;2.75;;;;;;;;;;6207158;22;20020;-85
2022/08/09 06:20:42;;;;;;;3.17;2.58;;;;;;;;;;6206627;23;20147;-85
2022/08/09 06:23:08;;;;;;;8.45;2.53;;;;;;;;;;6206550;23;20015;-85
2022/08/09 06:25:34;;;;;;;5.85;1.98;;;;;;;;;;6208568;23;20016;-85
2022/08/09 06:28:00;;;;;;;2.80;1.90;;;;;;;;;;6205421;23;20333;-85
2022/08/09 06:30:26;;;;;;;5.60;2.85;;;;;;;;;;6205736;23;20000;-85
2022/08/09 06:32:52;;;;;;;4.72;2.33;;;;;;;;;;6205367;23;20079;-85
2022/08/09 06:35:19;;;;;;;3.10;1.88;;;;;;;;;;6206165;23;20133;-85
2022/08/09 06:37:45;;;;;;;3.85;2.03;;;;;;;;;;6206657;23;20009;-85
2022/08/09 06:40:11;;;;;;;3.72;1.83;;;;;;;;;;6206206;23;20376;-85
2022/08/09 06:42:37;;;;;;;3.60;1.90;;;;;;;;;;6206851;23;20448;-84
2022/08/09 06:45:03;;;;;;;9.35;2.50;;;;;;;;;;6206751;23;20005;-86
2022/08/09 06:47:29;;;;;;;3.05;2.70;;;;;;;;;;6206003;23;20445;-85
2022/08/09 06:49:55;;;;;;;4.75;2.40;;;;;;;;;;6205409;23;20009;-85
2022/08/09 06:52:22;;;;;;;4.50;2.25;;;;;;;;;;6205795;23;20048;-85
2022/08/09 06:54:48;;;;;;;8.02;2.30;;;;;;;;;;6203228;23;20538;-85
2022/08/09 06:57:14;;;;;;;6.72;3.25;;;;;;;;;;6205139;23;20004;-85
2022/08/09 06:59:40;;;;;;;4.10;2.13;;;;;;;;;;6206361;23;20398;-85
2022/08/09 07:02:06;;;;;;;2.95;1.85;;;;;;;;;;6206077;23;20016;-85
2022/08/09 07:04:32;;;;;;;3.92;2.00;;;;;;;;;;6206418;23;20009;-84
2022/08/09 07:06:58;;;;;;;4.70;1.80;;;;;;;;;;6207686;23;20005;-85
2022/08/09 07:09:24;;;;;;;4.90;2.10;;;;;;;;;;6204345;23;20451;-85
2022/08/09 07:11:50;;;;;;;5.45;2.00;;;;;;;;;;6207325;23;20005;-85
2022/08/09 07:14:16;;;;;;;4.55;2.22;;;;;;;;;;6204531;23;20005;-85
2022/08/09 07:16:46;;;;;;;8.13;2.03;;;;;;;;;;6206430;23;20044;-84
2022/08/09 07:19:12;;;;;;;3.45;1.60;;;;;;;;;;6205283;22;20021;-84
2022/08/09 07:21:39;;;;;;;3.90;1.65;;;;;;;;;;6204293;23;20043;-84
2022/08/09 07:24:05;;;;;;;4.60;1.80;;;;;;;;;;6204321;23;20428;-85
2022/08/09 07:26:31;;;;;;;5.30;1.80;;;;;;;;;;6204438;23;20008;-84
2022/08/09 07:28:58;;;;;;;3.53;1.40;;;;;;;;;;6202861;23;20005;-84
2022/08/09 07:31:24;;;;;;;6.32;2.13;;;;;;;;;;6202445;23;20009;-85
2022/08/09 07:33:50;;;;;;;7.20;1.90;;;;;;;;;;6203538;23;20473;-84
2022/08/09 07:36:16;;;;;;;4.07;1.85;;;;;;;;;;6203501;23;20001;-85
2022/08/09 07:38:42;;;;;;;6.05;1.90;;;;;;;;;;6205187;23;20031;-84
2022/08/09 07:41:08;;;;;;;4.32;1.75;;;;;;;;;;6200659;23;20396;-84
2022/08/09 07:43:34;;;;;;;5.88;1.83;;;;;;;;;;6205130;23;20019;-84
2022/08/09 07:46:00;;;;;;;2.85;1.63;;;;;;;;;;6200872;23;20008;-85
2022/08/09 07:48:26;;;;;;;2.13;1.45;;;;;;;;;;6202680;23;20508;-85
2022/08/09 07:50:53;;;;;;;2.50;1.20;;;;;;;;;;6201769;23;20015;-85
2022/08/09 07:53:19;;;;;;;3.72;1.50;;;;;;;;;;6202637;23;20436;-85
2022/08/09 07:55:45;;;;;;;2.58;1.50;;;;;;;;;;6203447;23;20108;-84
2022/08/09 07:58:11;;;;;;;4.47;2.03;;;;;;;;;;6203378;23;20096;-84
2022/08/09 08:00:37;;;;;;;1.65;1.20;;;;;;;;;;6204323;23;20015;-84
2022/08/09 08:03:03;;;;;;;5.85;1.25;;;;;;;;;;6202467;23;20452;-84
2022/08/09 08:05:29;;;;;;;3.35;1.40;;;;;;;;;;6206216;23;20031;-84
2022/08/09 08:07:56;;;;;;;2.90;1.50;;;;;;;;;;6198547;23;20004;-85
2022/08/09 08:10:22;;;;;;;1.52;1.00;;;;;;;;;;6206522;23;20000;-84
2022/08/09 08:12:48;;;;;;;1.88;1.20;;;;;;;;;;6201142;23;20345;-85
2022/08/09 08:15:18;;;;;;;1.98;1.20;;;;;;;;;;6202233;23;20005;-84
2022/08/09 08:17:51;;;;;;;4.57;1.30;;;;;;;;;;6200816;23;20106;-84
2022/08/09 08:20:18;;;;;;;3.50;1.17;;;;;;;;;;6174655;23;20099;-84
2022/08/09 08:22:44;;;;;;;1.73;1.20;;;;;;;;;;6174910;23;20041;-85
2022/08/09 08:25:10;;;;;;;1.65;1.05;;;;;;;;;;6175059;23;20396;-85
2022/08/09 08:27:36;;;;;;;2.25;1.02;;;;;;;;;;6172795;23;20011;-84
2022/08/09 08:30:03;;;;;;;1.15;1.05;;;;;;;;;;6174713;23;20016;-84
2022/08/09 08:32:29;;;;;;;4.15;1.00;;;;;;;;;;6147593;23;20349;-85
2022/08/09 08:34:56;;;;;;;2.80;1.40;;;;;;;;;;6173898;23;20013;-84
2022/08/09 08:37:23;;;;;;;4.10;1.00;;;;;;;;;;6149530;23;20017;-85
2022/08/09 08:39:55;;;;;;;2.60;0.90;;;;;;;;;;6172517;23;20009;-85
2022/08/09 08:42:22;;;;;;;2.47;0.95;;;;;;;;;;6173404;23;20009;-85
2022/08/09 08:44:56;;;;;;;3.13;1.25;;;;;;;;;;6173363;23;20009;-85
2022/08/09 08:47:22;;;;;;;1.13;0.85;;;;;;;;;;6173130;23;20016;-84
2022/08/09 08:49:49;;;;;;;2.80;1.15;;;;;;;;;;6173463;23;20501;-85
2022/08/09 08:52:19;;;;;;;0.95;0.80;;;;;;;;;;6174428;23;20486;-85
2022/08/09 08:54:45;;;;;;;1.05;0.73;;;;;;;;;;6172961;23;20005;-85
2022/08/09 08:57:11;;;;;;;2.38;0.75;;;;;;;;;;6171209;23;20012;-85
2022/08/09 08:59:37;;;;;;;1.50;0.80;;;;;;;;;;6173784;23;20009;-85
2022/08/09 09:02:03;;;;;;;2.17;0.93;;;;;;;;;;6170662;23;20724;-85
2022/08/09 09:04:31;;;;;;;0.63;0.63;;;;;;;;;;6175004;23;20055;-85
2022/08/09 09:07:00;;;;;;;1.00;0.90;;;;;;;;;;6171625;23;20016;-85
2022/08/09 09:09:28;;;;;;;2.55;1.00;;;;;;;;;;6172176;23;20054;-85
2022/08/09 09:11:55;;;;;;;1.83;1.17;;;;;;;;;;6172918;23;20001;-85
2022/08/09 09:14:25;;;;;;;1.10;1.00;;;;;;;;;;6173107;23;20306;-84
2022/08/09 09:16:51;;;;;;;3.17;1.20;;;;;;;;;;6147084;23;20009;-84
2022/08/09 09:19:17;;;;;;;1.45;0.77;;;;;;;;;;6152080;23;20396;-84
2022/08/09 09:22:04;;;;;;;2.53;0.98;;;;;;;;;;6202347;23;20028;-84
2022/08/09 09:24:49;;;;;;;3.72;0.90;;;;;;;;;;6177016;23;20083;-84
2022/08/09 09:27:20;;;;;;;1.38;1.25;;;;;;;;;;6176347;23;20515;-84
2022/08/09 09:29:46;;;;;;;3.30;1.10;;;;;;;;;;6178278;23;20088;-84
2022/08/09 09:32:12;;;;;;;3.47;1.13;;;;;;;;;;6176651;23;20503;-84
2022/08/09 09:34:38;;;;;;;1.23;1.00;;;;;;;;;;6179231;23;20008;-84
2022/08/09 09:37:05;;;;;;;1.38;1.17;;;;;;;;;;6203581;23;20008;-84
2022/08/09 09:39:32;;;;;;;1.15;0.95;;;;;;;;;;6175278;23;20048;-84
2022/08/09 09:41:58;;;;;;;2.25;1.08;;;;;;;;;;6174805;23;20008;-84
2022/08/09 09:44:26;;;;;;;1.10;0.90;;;;;;;;;;6178820;23;20009;-84
2022/08/09 09:47:15;;;;;;;2.45;0.82;;;;;;;;;;6175045;23;20562;-84
2022/08/09 09:49:49;;;;;;;2.85;1.17;;;;;;;;;;6178013;23;20001;-85
2022/08/09 09:52:15;;;;;;;1.75;1.10;;;;;;;;;;6176863;23;20146;-84
2022/08/09 09:54:42;;;;;;;0.88;0.82;;;;;;;;;;6178299;23;20448;-84
2022/08/09 09:57:22;;;;;;;1.65;0.88;;;;;;;;;;6177235;23;20008;-85
2022/08/09 09:59:49;;;;;;;4.00;0.60;;;;;;;;;;6179769;23;20575;-85
2022/08/09 10:02:17;;;;;;;0.80;0.80;;;;;;;;;;6177961;23;20433;-85
2022/08/09 10:05:04;;;;;;;1.42;0.73;;;;;;;;;;6179411;23;20151;-85
2022/08/09 10:07:30;;;;;;;1.25;0.65;;;;;;;;;;6179509;23;20071;-84
2022/08/09 10:09:57;;;;;;;1.10;1.00;;;;;;;;;;6178437;23;20012;-85
2022/08/09 10:12:26;;;;;;;0.88;0.88;;;;;;;;;;6178394;23;20004;-85
2022/08/09 10:15:02;;;;;;;1.60;0.90;;;;;;;;;;6181265;23;20459;-85
2022/08/09 10:17:32;;;;;;;2.05;1.20;;;;;;;;;;6179281;23;20011;-85
2022/08/09 10:19:58;;;;;;;0.82;0.73;;;;;;;;;;6198851;22;20087;-85
2022/08/09 10:22:37;;;;;;;1.67;0.70;;;;;;;;;;6206223;23;20579;-85
2022/08/09 10:25:04;;;;;;;1.05;0.95;;;;;;;;;;6202979;23;20008;-85
2022/08/09 10:27:31;;;;;;;1.52;1.42;;;;;;;;;;6203720;23;20465;-85
2022/08/09 10:29:58;;;;;;;1.13;0.82;;;;;;;;;;6206903;23;20043;-85
2022/08/09 10:32:24;;;;;;;1.10;0.90;;;;;;;;;;6206090;23;20000;-84
2022/08/09 10:34:51;;;;;;;4.05;0.77;;;;;;;;;;6205882;23;20012;-85
2022/08/09 10:37:18;;;;;;;1.52;1.33;;;;;;;;;;6206142;23;20019;-85
2022/08/09 10:39:44;;;;;;;11.18;7.13;;;;;;;;;;6205913;23;20004;-85
2022/08/09 10:42:10;;;;;;;4.65;1.60;;;;;;;;;;6206376;23;20424;-85
2022/08/09 10:44:37;;;;;;;2.90;0.95;;;;;;;;;;6206968;23;20013;-85
2022/08/09 10:47:13;;;;;;;3.25;1.58;;;;;;;;;;6204443;23;20015;-85
2022/08/09 10:49:39;;;;;;;1.40;1.30;;;;;;;;;;6207556;23;20012;-85
2022/08/09 10:52:13;;;;;;;1.90;0.90;;;;;;;;;;6206552;23;20059;-85
2022/08/09 10:54:39;;;;;;;0.80;0.80;;;;;;;;;;6205420;23;20432;-85
2022/08/09 10:57:09;;;;;;;0.98;0.82;;;;;;;;;;6204541;23;20013;-85
2022/08/09 10:59:36;;;;;;;0.95;0.60;;;;;;;;;;6205536;23;20460;-85
2022/08/09 11:02:03;;;;;;;1.30;0.80;;;;;;;;;;6204367;23;20830;-85
2022/08/09 11:04:29;;;;;;;0.40;0.40;;;;;;;;;;6206878;23;20066;-85
2022/08/09 11:06:58;;;;;;;1.85;0.60;;;;;;;;;;6202441;23;20012;-85
2022/08/09 11:09:47;;;;;;;3.20;1.27;;;;;;;;;;6206728;23;20405;-85
2022/08/09 11:12:14;;;;;;;1.80;1.00;;;;;;;;;;6186737;23;20009;-84
2022/08/09 11:14:43;;;;;;;1.25;0.60;;;;;;;;;;6208707;23;20428;-85
2022/08/09 11:17:12;;;;;;;0.95;0.85;;;;;;;;;;6205841;23;20008;-85
2022/08/09 11:19:55;;;;;;;2.05;1.05;;;;;;;;;;6206913;22;20021;-85
2022/08/09 11:22:22;;;;;;;0.47;0.47;;;;;;;;;;6205057;23;20490;-85
2022/08/09 11:24:57;;;;;;;2.15;0.75;;;;;;;;;;6203816;23;20364;-85
2022/08/09 11:27:33;;;;;;;2.30;0.93;;;;;;;;;;6200866;23;20013;-84
2022/08/09 11:29:59;;;;;;;5.63;0.80;;;;;;;;;;6201552;23;20008;-85
2022/08/09 11:32:44;;;;;;;1.45;0.90;;;;;;;;;;6203386;23;20005;-85
2022/08/09 11:35:20;;;;;;;1.13;1.10;;;;;;;;;;6202159;23;20047;-85
2022/08/09 11:37:46;;;;;;;;;;;;;;;;;;6203942;23;20009;-85
2022/08/09 11:40:14;;;;;;;1.05;0.82;;;;;;;;;;6197854;23;20082;-85
2022/08/09 11:42:45;;;;;;;3.80;1.35;;;;;;;;;;6202829;23;20063;-85
2022/08/09 11:45:22;;;;;;;4.18;1.08;;;;;;;;;;6201993;23;20011;-85
2022/08/09 11:47:49;;;;;;;0.90;0.90;;;;;;;;;;6203771;23;20001;-85
2022/08/09 11:50:15;;;;;;;4.40;0.80;;;;;;;;;;6201655;23;20035;-85
2022/08/09 11:53:01;;;;;;;1.63;1.00;;;;;;;;;;6200792;23;20015;-85
2022/08/09 11:55:34;;;;;;;1.10;1.00;;;;;;;;;;6204788;23;20300;-84
2022/08/09 11:58:01;;;;;;;0.90;0.90;;;;;;;;;;6202185;23;20382;-85
2022/08/09 12:00:28;;;;;;;2.17;0.70;;;;;;;;;;6205023;23;20340;-85
2022/08/09 12:02:55;;;;;;;1.88;1.10;;;;;;;;;;6202394;23;20012;-85
2022/08/09 12:05:21;;;;;;;3.50;0.82;;;;;;;;;;6202067;23;20040;-85
2022/08/09 12:07:48;;;;;;;1.05;1.05;;;;;;;;;;6203555;23;20000;-85
2022/08/09 12:10:14;;;;;;;0.95;0.95;;;;;;;;;;6200962;23;20116;-84
2022/08/09 12:12:47;;;;;;;2.72;1.08;;;;;;;;;;6203959;23;20003;-85
2022/08/09 12:15:21;;;;;;;1.17;1.00;;;;;;;;;;6200350;23;20451;-85
2022/08/09 12:17:47;;;;;;;1.40;1.00;;;;;;;;;;6203089;23;20036;-85
2022/08/09 12:20:15;;;;;;;1.50;0.85;;;;;;;;;;6204717;22;20028;-85
2022/08/09 12:22:42;;;;;;;1.70;1.20;;;;;;;;;;6202073;23;20180;-85
2022/08/09 12:25:12;;;;;;;1.08;0.95;;;;;;;;;;6203273;23;20436;-85
2022/08/09 12:27:38;;;;;;;2.63;1.23;;;;;;;;;;6203730;23;20000;-85
2022/08/09 12:30:06;;;;;;;0.93;0.93;;;;;;;;;;6203045;23;20008;-85
2022/08/09 12:32:32;;;;;;;0.82;0.82;;;;;;;;;;6203521;23;20387;-85
2022/08/09 12:35:02;;;;;;;1.15;1.05;;;;;;;;;;6202460;23;20015;-85
2022/08/09 12:37:35;;;;;;;2.55;0.60;;;;;;;;;;6204199;23;20473;-84
2022/08/09 12:40:06;;;;;;;1.30;0.90;;;;;;;;;;6200951;23;20009;-85
2022/08/09 12:42:33;;;;;;;3.85;0.98;;;;;;;;;;6201908;23;20064;-85
2022/08/09 12:44:59;;;;;;;1.02;0.88;;;;;;;;;;6201352;23;20015;-86
2022/08/09 12:47:25;;;;;;;0.93;0.93;;;;;;;;;;6203429;23;20005;-84
2022/08/09 12:52:37;;;;;;;1.20;0.80;;;;;;;;;;6207199;23;20016;-85
2022/08/09 12:55:04;;;;;;;0.68;0.68;;;;;;;;;;6204932;23;20035;-84
2022/08/09 12:57:41;;;;;;;1.33;0.80;;;;;;;;;;6203330;23;20424;-84
2022/08/09 13:00:17;;;;;;;3.78;0.73;;;;;;;;;;6206988;23;20005;-85
2022/08/09 13:02:50;;;;;;;0.70;0.70;;;;;;;;;;6204982;23;20040;-85
2022/08/09 13:05:17;;;;;;;3.85;1.00;;;;;;;;;;6204759;23;20013;-85
2022/08/09 13:08:03;;;;;;;2.20;1.23;;;;;;;;;;6205832;23;20009;-84
2022/08/09 13:10:29;;;;;;;0.75;0.70;;;;;;;;;;6204812;23;20839;-85
2022/08/09 13:12:59;;;;;;;6.75;0.80;;;;;;;;;;6203156;23;20437;-84
2022/08/09 13:15:25;;;;;;;2.28;0.70;;;;;;;;;;6204038;23;20009;-84
2022/08/09 13:17:51;;;;;;;0.93;0.85;;;;;;;;;;6203889;23;20467;-85
2022/08/09 13:20:30;;;;;;;1.70;1.02;;;;;;;;;;6204323;22;20138;-85
2022/08/09 13:22:58;;;;;;;0.80;0.75;;;;;;;;;;6203682;23;20429;-84
2022/08/09 13:25:24;;;;;;;1.42;1.15;;;;;;;;;;6201780;23;20476;-85
2022/08/09 13:27:50;;;;;;;1.30;0.73;;;;;;;;;;6202479;23;20468;-84
2022/08/09 13:30:17;;;;;;;4.85;1.05;;;;;;;;;;6204296;23;20085;-84
2022/08/09 13:32:53;;;;;;;0.95;0.70;;;;;;;;;;6205457;23;20008;-84
2022/08/09 13:35:20;;;;;;;0.90;0.70;;;;;;;;;;6205817;23;20008;-85
2022/08/09 13:37:47;;;;;;;0.68;0.68;;;;;;;;;;6204919;23;20012;-84
2022/08/09 13:40:13;;;;;;;1.08;0.90;;;;;;;;;;6203542;23;20425;-84
2022/08/09 13:42:40;;;;;;;2.63;0.88;;;;;;;;;;6204175;23;20441;-85
2022/08/09 13:45:07;;;;;;;1.58;0.85;;;;;;;;;;6204838;23;20008;-85
2022/08/09 13:47:34;;;;;;;2.47;0.65;;;;;;;;;;6206783;23;19997;-85
2022/08/09 13:50:05;;;;;;;1.92;0.88;;;;;;;;;;6204283;23;20036;-84
2022/08/09 13:52:32;;;;;;;2.78;0.60;;;;;;;;;;6206055;23;20005;-84
2022/08/09 13:54:58;;;;;;;1.38;0.88;;;;;;;;;;6205354;23;20009;-84
2022/08/09 13:57:25;;;;;;;0.73;0.63;;;;;;;;;;6208294;23;20001;-84
2022/08/09 13:59:51;;;;;;;0.70;0.70;;;;;;;;;;6204454;23;20009;-84
2022/08/09 14:02:17;;;;;;;0.63;0.60;;;;;;;;;;6205561;23;20005;-84
2022/08/09 14:04:43;;;;;;;1.40;0.60;;;;;;;;;;6206133;23;20016;-84
2022/08/09 14:07:10;;;;;;;3.03;0.82;;;;;;;;;;6207899;23;20055;-84
2022/08/09 14:09:36;;;;;;;3.72;1.00;;;;;;;;;;6207669;23;20019;-85
2022/08/09 14:12:02;;;;;;;0.88;0.70;;;;;;;;;;6207392;23;20008;-85
2022/08/09 14:14:35;;;;;;;2.60;0.60;;;;;;;;;;6208131;23;20012;-84
2022/08/09 14:17:01;;;;;;;1.30;0.82;;;;;;;;;;6206142;23;20001;-84
2022/08/09 14:19:27;;;;;;;1.20;0.70;;;;;;;;;;6209437;22;20059;-84
2022/08/09 14:21:53;;;;;;;2.00;0.90;;;;;;;;;;6206286;23;20013;-84
2022/08/09 14:24:19;;;;;;;0.70;0.70;;;;;;;;;;6207881;23;20453;-85
2022/08/09 14:26:47;;;;;;;0.70;0.60;;;;;;;;;;6206840;23;20028;-84
2022/08/09 14:29:15;;;;;;;0.93;0.60;;;;;;;;;;6208535;23;20016;-84
2022/08/09 14:31:41;;;;;;;1.55;0.60;;;;;;;;;;6207815;23;20051;-85
2022/08/09 14:34:08;;;;;;;0.60;0.40;;;;;;;;;;6209692;23;20055;-84
2022/08/09 14:36:34;;;;;;;1.98;0.60;;;;;;;;;;6207424;23;20381;-83
2022/08/09 14:39:00;;;;;;;0.75;0.75;;;;;;;;;;6206362;23;20091;-84
2022/08/09 14:41:26;;;;;;;0.60;0.60;;;;;;;;;;6207184;23;20055;-84
2022/08/09 14:43:52;;;;;;;0.77;0.70;;;;;;;;;;6206049;23;20012;-84
2022/08/09 14:46:18;;;;;;;1.25;0.60;;;;;;;;;;6207479;23;20004;-84
2022/08/09 14:48:44;;;;;;;0.60;0.57;;;;;;;;;;6208962;23;20590;-85